Time;durP1;ratioP1;P1;durP2;ratioP2;P2;SDS_P1;SDS_P2;PMS_P1;PMS_P2;Temp;Humidity;BMP_temperature;BMP_pressure;BME280_temperature;BME280_humidity;BME280_pressure;Samples;Min_cycle;Max_cycle;Signal;HPM_P1;HPM_P2
2022/06/17 00:00:59;;;;;;;;;;;;;;;18.74;38.97;97097.06;5094870;28;20402;-71
2022/06/17 00:03:27;;;;;;;;;;;;;;;18.70;39.44;97100.47;5094998;28;19961;-71
2022/06/17 00:05:54;;;;;;;;;;;;;;;18.65;39.56;97098.59;5095128;28;19953;-71
2022/06/17 00:08:22;;;;;;;;;;;;;;;18.59;39.38;97091.63;5094727;28;19948;-71
2022/06/17 00:10:48;;;;;;;;;;;;;;;18.54;39.39;97092.38;5094740;28;19941;-71
2022/06/17 00:13:15;;;;;;;;;;;;;;;18.48;39.74;97097.88;5094598;28;20476;-71
2022/06/17 00:15:41;;;;;;;;;;;;;;;18.43;39.48;97096.00;5094609;28;19946;-71
2022/06/17 00:18:07;;;;;;;;;;;;;;;18.38;40.01;97088.78;5094629;28;19952;-71
2022/06/17 00:20:34;;;;;;;;;;;;;;;18.34;40.28;97087.69;5094563;28;20025;-71
2022/06/17 00:23:01;;;;;;;;;;;;;;;18.31;40.54;97100.66;5094455;28;19968;-71
2022/06/17 00:25:27;;;;;;;;;;;;;;;18.26;40.53;97096.91;5094617;28;19958;-71
2022/06/17 00:27:53;;;;;;;;;;;;;;;18.21;40.90;97099.50;5093754;28;19956;-71
2022/06/17 00:30:21;;;;;;;;;;;;;;;18.14;40.89;97109.53;5094673;28;19955;-71
2022/06/17 00:32:47;;;;;;;;;;;;;;;18.07;41.00;97110.78;5094223;28;19955;-71
2022/06/17 00:35:13;;;;;;;;;;;;;;;18.00;41.92;97111.78;5094130;28;19960;-71
2022/06/17 00:37:40;;;;;;;;;;;;;;;17.96;41.78;97109.88;5094192;28;20329;-72
2022/06/17 00:40:10;;;;;;;;;;;;;;;17.93;41.15;97107.69;5093675;28;19977;-70
2022/06/17 00:42:37;;;;;;;;;;;;;;;17.88;41.71;97107.66;5093743;28;19951;-71
2022/06/17 00:45:09;;;;;;;;;;;;;;;17.82;42.07;97114.72;5094205;28;19981;-71
2022/06/17 00:47:39;;;;;;;;;;;;;;;17.76;42.18;97111.19;5094017;28;19957;-71
2022/06/17 00:50:05;;;;;;;;;;;;;;;17.72;42.41;97112.72;5094304;28;19958;-71
2022/06/17 00:52:36;;;;;;;;;;;;;;;17.68;42.12;97119.59;5093909;28;19946;-71
2022/06/17 00:55:05;;;;;;;;;;;;;;;17.62;41.73;97105.47;5094007;28;19952;-71
2022/06/17 00:57:33;;;;;;;;;;;;;;;17.58;41.59;97107.00;5094082;28;19953;-70
2022/06/17 01:00:00;;;;;;;;;;;;;;;17.52;41.40;97105.34;5093845;28;19966;-71
2022/06/17 01:02:27;;;;;;;;;;;;;;;17.47;42.31;97109.75;5093287;28;19955;-71
2022/06/17 01:04:53;;;;;;;;;;;;;;;17.41;42.32;97115.00;5093253;28;19963;-71
2022/06/17 01:07:24;;;;;;;;;;;;;;;17.35;42.48;97107.25;5093829;28;19956;-70
2022/06/17 01:09:58;;;;;;;;;;;;;;;17.25;42.48;97106.03;5093970;28;19952;-70
2022/06/17 01:12:27;;;;;;;;;;;;;;;17.15;42.48;97113.06;5093665;28;20405;-71
2022/06/17 01:14:53;;;;;;;;;;;;;;;17.05;42.83;97111.06;5093290;28;20358;-71
2022/06/17 01:17:22;;;;;;;;;;;;;;;16.97;43.29;97116.78;5084691;28;19961;-71
2022/06/17 01:19:48;;;;;;;;;;;;;;;16.90;42.85;97111.63;5094119;28;20086;-70
2022/06/17 01:22:17;;;;;;;;;;;;;;;16.84;42.45;97110.75;5093546;28;19957;-71
2022/06/17 01:24:44;;;;;;;;;;;;;;;16.78;43.39;97100.31;5093341;28;20081;-71
2022/06/17 01:27:09;;;;;;;;;;;;;;;16.76;43.26;97094.44;5093566;28;19966;-70
2022/06/17 01:29:36;;;;;;;;;;;;;;;16.74;42.35;97097.31;5093303;28;19957;-70
2022/06/17 01:32:02;;;;;;;;;;;;;;;16.73;42.70;97095.69;5093905;28;19954;-70
2022/06/17 01:34:28;;;;;;;;;;;;;;;16.72;44.10;97093.31;5093839;28;19951;-70
2022/06/17 01:36:54;;;;;;;;;;;;;;;16.71;43.50;97103.09;5093519;28;19971;-70
2022/06/17 01:39:20;;;;;;;;;;;;;;;16.72;44.31;97102.06;5093365;28;20492;-70
2022/06/17 01:41:47;;;;;;;;;;;;;;;16.71;43.84;97089.84;5093237;28;19952;-70
2022/06/17 01:44:16;;;;;;;;;;;;;;;16.75;44.62;97100.75;5093723;28;19970;-70
2022/06/17 01:46:43;;;;;;;;;;;;;;;16.75;44.58;97111.34;5093294;28;19953;-70
2022/06/17 01:49:14;;;;;;;;;;;;;;;16.68;43.74;97108.88;5093981;28;19962;-70
2022/06/17 01:51:42;;;;;;;;;;;;;;;16.67;44.66;97109.09;5094941;28;19950;-70
2022/06/17 01:54:12;;;;;;;;;;;;;;;16.70;44.37;97106.78;5097515;28;19957;-70
2022/06/17 01:56:41;;;;;;;;;;;;;;;16.74;44.87;97107.13;5097130;28;19960;-71
2022/06/17 01:59:11;;;;;;;;;;;;;;;16.77;44.48;97106.63;5097243;28;20441;-70
2022/06/17 02:01:39;;;;;;;;;;;;;;;16.80;44.65;97119.41;5097273;28;19944;-70
2022/06/17 02:04:27;;;;;;;;;;;;;;;16.81;45.04;97119.16;5097525;28;19960;-70
2022/06/17 02:06:59;;;;;;;;;;;;;;;16.80;45.11;97116.75;5097193;28;19950;-71
2022/06/17 02:09:25;;;;;;;;;;;;;;;16.77;45.35;97125.16;5097054;28;19961;-71
2022/06/17 02:11:51;;;;;;;;;;;;;;;16.72;45.68;97119.81;5097347;28;19999;-70
2022/06/17 02:14:17;;;;;;;;;;;;;;;16.68;45.77;97124.78;5096946;28;19983;-70
2022/06/17 02:16:45;;;;;;;;;;;;;;;16.61;45.79;97124.94;5096884;28;20117;-70
2022/06/17 02:19:11;;;;;;;;;;;;;;;16.54;45.51;97126.91;5094973;28;20337;-70
2022/06/17 02:21:50;;;;;;;;;;;;;;;16.50;46.13;97120.47;5096638;28;19947;-70
2022/06/17 02:24:17;;;;;;;;;;;;;;;16.46;45.72;97131.78;5097099;28;19951;-70
2022/06/17 02:26:44;;;;;;;;;;;;;;;16.41;47.06;97135.16;5095610;28;20349;-70
2022/06/17 02:29:11;;;;;;;;;;;;;;;16.33;46.96;97138.19;5095356;28;19961;-71
2022/06/17 02:31:38;;;;;;;;;;;;;;;16.24;47.69;97130.63;5096630;28;20293;-70
2022/06/17 02:34:05;;;;;;;;;;;;;;;16.21;47.68;97125.00;5096640;28;19953;-70
2022/06/17 02:36:34;;;;;;;;;;;;;;;16.19;47.76;97122.59;5097031;28;19955;-70
2022/06/17 02:39:01;;;;;;;;;;;;;;;16.15;47.92;97131.25;5096602;28;19979;-71
2022/06/17 02:41:28;;;;;;;;;;;;;;;16.10;48.50;97128.50;5096672;28;20432;-70
2022/06/17 02:43:59;;;;;;;;;;;;;;;16.06;48.47;97122.88;5096671;28;19960;-70
2022/06/17 02:46:28;;;;;;;;;;;;;;;16.03;48.60;97118.88;5096393;28;19958;-70
2022/06/17 02:49:04;;;;;;;;;;;;;;;15.98;48.99;97124.06;5095973;28;19943;-70
2022/06/17 02:51:32;;;;;;;;;;;;;;;15.97;49.12;97114.50;5096425;28;19966;-70
2022/06/17 02:53:58;;;;;;;;;;;;;;;15.96;49.11;97128.78;5095981;28;19953;-70
2022/06/17 02:56:29;;;;;;;;;;;;;;;15.95;48.40;97113.16;5096261;28;19960;-70
2022/06/17 02:59:10;;;;;;;;;;;;;;;15.92;48.94;97114.44;5096106;28;19963;-70
2022/06/17 03:01:37;;;;;;;;;;;;;;;15.88;48.88;97115.94;5096428;28;19954;-70
2022/06/17 03:04:07;;;;;;;;;;;;;;;15.82;49.38;97107.09;5095423;28;19953;-70
2022/06/17 03:06:35;;;;;;;;;;;;;;;15.76;49.65;97118.59;5095929;28;20322;-70
2022/06/17 03:09:14;;;;;;;;;;;;;;;15.72;49.57;97114.03;5095921;28;19984;-71
2022/06/17 03:11:41;;;;;;;;;;;;;;;15.67;49.84;97106.75;5096114;28;19946;-70
2022/06/17 03:14:09;;;;;;;;;;;;;;;15.63;50.79;97117.00;5096157;28;19987;-70
2022/06/17 03:16:35;;;;;;;;;;;;;;;15.58;50.27;97110.78;5096016;28;20413;-71
2022/06/17 03:19:02;;;;;;;;;;;;;;;15.56;50.50;97107.56;5095234;28;19966;-70
2022/06/17 03:21:28;;;;;;;;;;;;;;;15.52;50.33;97107.25;5095912;28;19957;-72
2022/06/17 03:24:01;;;;;;;;;;;;;;;15.50;50.88;97113.81;5095702;28;20466;-70
2022/06/17 03:26:39;;;;;;;;;;;;;;;15.43;51.08;97120.03;5095478;28;19954;-70
2022/06/17 03:29:06;;;;;;;;;;;;;;;15.40;51.15;97124.97;5095676;28;19976;-70
2022/06/17 03:31:34;;;;;;;;;;;;;;;15.37;51.32;97128.88;5095487;28;19955;-70
2022/06/17 03:34:25;;;;;;;;;;;;;;;15.33;51.47;97127.75;5060261;28;20297;-70
2022/06/17 03:37:14;;;;;;;;;;;;;;;15.28;51.59;97124.97;5095341;28;19946;-70
2022/06/17 03:39:41;;;;;;;;;;;;;;;15.19;51.34;97123.72;5095250;28;19963;-70
2022/06/17 03:42:16;;;;;;;;;;;;;;;15.14;51.59;97115.66;5095348;28;19963;-70
2022/06/17 03:44:47;;;;;;;;;;;;;;;15.13;51.36;97114.88;5095099;28;19951;-70
2022/06/17 03:47:16;;;;;;;;;;;;;;;15.11;51.93;97116.94;5095344;28;19957;-70
2022/06/17 03:49:57;;;;;;;;;;;;;;;15.10;52.05;97125.09;5095139;28;19950;-70
2022/06/17 03:52:23;;;;;;;;;;;;;;;15.12;51.91;97137.06;5095209;28;19951;-71
2022/06/17 03:54:49;;;;;;;;;;;;;;;15.12;52.45;97144.16;5093963;28;19952;-70
2022/06/17 03:57:16;;;;;;;;;;;;;;;15.13;51.96;97129.94;5094787;28;19959;-70
2022/06/17 03:59:45;;;;;;;;;;;;;;;15.14;53.04;97142.91;5095008;28;19967;-70
2022/06/17 04:02:13;;;;;;;;;;;;;;;15.15;52.97;97135.78;5094815;28;19950;-71
2022/06/17 04:04:47;;;;;;;;;;;;;;;15.18;53.48;97145.88;5094500;28;19949;-70
2022/06/17 04:07:14;;;;;;;;;;;;;;;15.18;53.45;97152.00;5094885;28;20292;-70
2022/06/17 04:09:41;;;;;;;;;;;;;;;15.21;52.92;97161.28;5094724;28;19964;-70
2022/06/17 04:12:13;;;;;;;;;;;;;;;15.26;53.23;97163.25;5093370;28;19960;-70
2022/06/17 04:14:48;;;;;;;;;;;;;;;15.33;52.55;97158.63;5093639;28;19983;-70
2022/06/17 04:17:14;;;;;;;;;;;;;;;15.41;52.99;97171.50;5083151;28;19969;-70
2022/06/17 04:19:42;;;;;;;;;;;;;;;15.47;53.30;97170.59;5094532;28;19952;-70
2022/06/17 04:22:16;;;;;;;;;;;;;;;15.56;52.65;97174.50;5094756;28;19951;-70
2022/06/17 04:24:44;;;;;;;;;;;;;;;15.65;52.27;97174.16;5094412;28;19943;-70
2022/06/17 04:27:13;;;;;;;;;;;;;;;15.71;52.58;97174.03;5094710;28;20433;-70
2022/06/17 04:29:40;;;;;;;;;;;;;;;15.79;52.17;97180.78;5094177;28;19975;-70
2022/06/17 04:32:18;;;;;;;;;;;;;;;15.86;51.63;97178.06;5094435;28;19958;-70
2022/06/17 04:34:44;;;;;;;;;;;;;;;15.95;51.69;97174.78;5094246;28;19963;-70
2022/06/17 04:37:19;;;;;;;;;;;;;;;16.05;51.89;97179.50;5094137;28;19958;-70
2022/06/17 04:39:47;;;;;;;;;;;;;;;16.17;51.19;97182.13;5094522;28;19996;-70
2022/06/17 04:42:16;;;;;;;;;;;;;;;16.22;51.34;97180.34;5094080;28;19955;-70
2022/06/17 04:44:42;;;;;;;;;;;;;;;16.27;51.79;97192.88;5094352;28;20408;-70
2022/06/17 04:47:13;;;;;;;;;;;;;;;16.33;51.97;97194.56;5094160;28;20001;-70
2022/06/17 04:49:46;;;;;;;;;;;;;;;16.42;51.44;97206.41;5094129;28;19956;-70
2022/06/17 04:52:31;;;;;;;;;;;;;;;16.51;51.28;97198.88;5093903;28;19961;-71
2022/06/17 04:54:58;;;;;;;;;;;;;;;16.62;52.51;97205.16;5093901;28;19956;-70
2022/06/17 04:57:25;;;;;;;;;;;;;;;16.70;50.79;97190.75;5094064;28;19956;-70
2022/06/17 04:59:51;;;;;;;;;;;;;;;16.75;50.47;97194.28;5093370;28;19971;-71
2022/06/17 05:02:21;;;;;;;;;;;;;;;16.86;51.54;97200.56;5092843;28;20371;-70
2022/06/17 05:04:49;;;;;;;;;;;;;;;17.00;50.87;97198.44;5093839;28;19947;-70
2022/06/17 05:07:16;;;;;;;;;;;;;;;17.15;50.07;97195.22;5093730;28;19952;-71
2022/06/17 05:09:48;;;;;;;;;;;;;;;17.37;50.40;97196.09;5094230;28;19944;-71
2022/06/17 05:12:34;;;;;;;;;;;;;;;17.61;49.73;97199.34;5093415;28;19950;-70
2022/06/17 05:15:09;;;;;;;;;;;;;;;17.93;49.18;97193.44;5079653;28;20456;-70
2022/06/17 05:17:35;;;;;;;;;;;;;;;18.21;48.10;97189.00;5093661;28;19952;-70
2022/06/17 05:20:01;;;;;;;;;;;;;;;18.45;47.55;97192.94;5092360;28;20023;-70
2022/06/17 05:22:35;;;;;;;;;;;;;;;18.71;47.25;97192.41;5093662;28;20410;-71
2022/06/17 05:25:04;;;;;;;;;;;;;;;18.97;46.99;97188.94;5093474;28;19954;-70
2022/06/17 05:27:30;;;;;;;;;;;;;;;19.12;47.76;97198.91;5093179;28;19959;-70
2022/06/17 05:29:56;;;;;;;;;;;;;;;19.09;47.45;97199.44;5093448;28;19957;-70
2022/06/17 05:32:22;;;;;;;;;;;;;;;19.20;46.92;97200.31;5093507;28;19952;-70
2022/06/17 05:34:48;;;;;;;;;;;;;;;19.35;47.06;97205.72;5093368;28;20310;-70
2022/06/17 05:37:14;;;;;;;;;;;;;;;19.51;47.29;97217.28;5093670;28;19952;-70
2022/06/17 05:39:41;;;;;;;;;;;;;;;19.76;46.83;97214.00;5093160;28;20411;-71
2022/06/17 05:42:07;;;;;;;;;;;;;;;20.05;45.44;97203.78;5093691;28;19960;-71
2022/06/17 05:44:35;;;;;;;;;;;;;;;20.32;43.95;97196.66;5093414;28;19983;-70
2022/06/17 05:47:01;;;;;;;;;;;;;;;20.57;44.21;97209.25;5093429;28;20442;-70
2022/06/17 05:49:26;;;;;;;;;;;;;;;20.81;43.99;97204.25;5093224;28;19955;-71
2022/06/17 05:51:52;;;;;;;;;;;;;;;21.07;43.08;97199.75;5093598;28;19963;-71
2022/06/17 05:54:18;;;;;;;;;;;;;;;21.28;42.95;97206.66;5093489;28;19957;-71
2022/06/17 05:56:44;;;;;;;;;;;;;;;21.58;42.63;97210.38;5093183;28;19953;-71
2022/06/17 05:59:10;;;;;;;;;;;;;;;21.87;42.32;97210.59;5093250;28;19958;-70
2022/06/17 06:01:37;;;;;;;;;;;;;;;22.04;41.58;97210.25;5093342;28;20312;-70
2022/06/17 06:04:02;;;;;;;;;;;;;;;22.18;40.67;97212.38;5093186;28;19960;-70
2022/06/17 06:06:28;;;;;;;;;;;;;;;22.27;40.29;97218.75;5093064;28;19981;-71
2022/06/17 06:08:55;;;;;;;;;;;;;;;22.35;40.64;97218.19;5093238;28;19959;-71
2022/06/17 06:11:21;;;;;;;;;;;;;;;22.43;41.18;97220.28;5093271;28;19960;-70
2022/06/17 06:13:47;;;;;;;;;;;;;;;22.34;40.58;97216.56;5092733;28;19977;-71
2022/06/17 06:16:15;;;;;;;;;;;;;;;22.17;40.48;97214.22;5093058;28;19968;-71
2022/06/17 06:18:45;;;;;;;;;;;;;;;22.10;41.52;97214.50;5093006;28;19946;-71
2022/06/17 06:21:11;;;;;;;;;;;;;;;22.03;40.70;97211.34;5092934;28;19969;-72
2022/06/17 06:23:38;;;;;;;;;;;;;;;21.86;41.63;97209.00;5092789;28;19954;-71
2022/06/17 06:26:05;;;;;;;;;;;;;;;21.93;41.61;97205.25;5093016;28;19964;-71
2022/06/17 06:28:31;;;;;;;;;;;;;;;22.07;41.95;97208.94;5092898;28;19959;-72
2022/06/17 06:31:00;;;;;;;;;;;;;;;22.04;41.13;97199.56;5092824;28;19963;-72
2022/06/17 06:33:26;;;;;;;;;;;;;;;22.07;41.70;97200.94;5093054;28;19958;-70
2022/06/17 06:35:52;;;;;;;;;;;;;;;22.18;40.98;97207.03;5092865;28;20043;-70
2022/06/17 06:38:18;;;;;;;;;;;;;;;22.17;41.86;97206.19;5093789;28;19961;-70
2022/06/17 06:40:47;;;;;;;;;;;;;;;22.06;40.69;97202.78;5095744;28;19967;-70
2022/06/17 06:43:15;;;;;;;;;;;;;;;21.98;41.68;97203.34;5096414;28;19955;-71
2022/06/17 06:45:42;;;;;;;;;;;;;;;22.18;41.79;97210.47;5096546;28;19969;-70
2022/06/17 06:48:09;;;;;;;;;;;;;;;22.44;41.33;97208.50;5096522;28;19958;-71
2022/06/17 06:50:35;;;;;;;;;;;;;;;22.76;40.17;97206.44;5096583;28;20267;-71
2022/06/17 06:53:02;;;;;;;;;;;;;;;22.84;39.66;97203.19;5097043;28;20356;-70
2022/06/17 06:55:28;;;;;;;;;;;;;;;22.97;40.14;97213.25;5095771;28;19953;-70
2022/06/17 06:57:58;;;;;;;;;;;;;;;23.10;40.09;97206.53;5096256;28;19954;-71
2022/06/17 07:00:26;;;;;;;;;;;;;;;23.23;39.64;97213.88;5096072;28;19970;-70
2022/06/17 07:02:52;;;;;;;;;;;;;;;23.31;39.69;97212.50;5095895;28;19961;-71
2022/06/17 07:05:18;;;;;;;;;;;;;;;23.15;39.12;97219.84;5096059;28;19955;-70
2022/06/17 07:07:45;;;;;;;;;;;;;;;23.02;39.50;97221.28;5096077;28;19976;-70
2022/06/17 07:10:22;;;;;;;;;;;;;;;22.96;39.28;97213.53;5095935;28;20428;-71
2022/06/17 07:12:48;;;;;;;;;;;;;;;22.99;39.45;97219.13;5096225;28;19957;-70
2022/06/17 07:15:23;;;;;;;;;;;;;;;23.21;40.60;97223.28;5082998;28;20026;-71
2022/06/17 07:17:57;;;;;;;;;;;;;;;23.27;38.93;97225.63;5095518;28;19978;-70
2022/06/17 07:20:23;;;;;;;;;;;;;;;23.12;39.31;97217.75;5096163;28;20308;-70
2022/06/17 07:22:51;;;;;;;;;;;;;;;23.28;40.34;97229.88;5090026;28;19953;-70
2022/06/17 07:25:18;;;;;;;;;;;;;;;23.52;38.72;97221.13;5099145;28;20035;-70
2022/06/17 07:27:44;;;;;;;;;;;;;;;23.71;39.54;97224.69;5088593;28;19958;-72
2022/06/17 07:30:17;;;;;;;;;;;;;;;23.91;39.08;97214.88;5081449;28;19963;-70
2022/06/17 07:32:43;;;;;;;;;;;;;;;23.97;39.20;97212.94;5089922;28;19957;-70
2022/06/17 07:35:09;;;;;;;;;;;;;;;23.91;38.79;97214.88;5091608;28;19965;-70
2022/06/17 07:40:19;;;;;;;;;;;;;;;23.72;38.91;97209.41;5090108;28;19968;-71
2022/06/17 07:42:46;;;;;;;;;;;;;;;23.86;40.06;97222.97;5086655;28;20318;-73
2022/06/17 07:45:14;;;;;;;;;;;;;;;24.15;38.78;97212.19;5086143;28;19956;-71
2022/06/17 07:47:42;;;;;;;;;;;;;;;24.36;38.63;97209.22;5084397;28;20018;-71
2022/06/17 07:50:10;;;;;;;;;;;;;;;24.36;39.39;97210.03;5085230;28;19972;-70
2022/06/17 07:52:36;;;;;;;;;;;;;;;24.55;38.74;97209.28;5090397;28;19964;-70
2022/06/17 07:55:02;;;;;;;;;;;;;;;24.61;37.96;97211.63;5094433;28;19962;-70
2022/06/17 07:57:28;;;;;;;;;;;;;;;24.66;38.27;97221.47;5083885;28;20330;-71
2022/06/17 07:59:54;;;;;;;;;;;;;;;24.58;38.14;97219.44;5088832;28;19968;-72
2022/06/17 08:02:20;;;;;;;;;;;;;;;24.55;38.25;97220.81;5081839;28;20001;-70
2022/06/17 08:04:46;;;;;;;;;;;;;;;24.70;39.22;97231.31;5089300;28;20323;-71
2022/06/17 08:07:12;;;;;;;;;;;;;;;24.88;38.23;97221.69;5094919;28;19953;-71
2022/06/17 08:09:38;;;;;;;;;;;;;;;25.00;38.12;97218.53;5088383;28;20002;-71
2022/06/17 08:12:08;;;;;;;;;;;;;;;25.01;38.20;97220.16;5092458;28;19962;-71
2022/06/17 08:14:35;;;;;;;;;;;;;;;25.02;37.87;97221.72;5085596;28;19989;-70
2022/06/17 08:17:02;;;;;;;;;;;;;;;25.02;38.94;97223.63;5094678;28;20321;-71
2022/06/17 08:19:28;;;;;;;;;;;;;;;25.08;38.26;97217.09;5094602;28;19960;-70
2022/06/17 08:21:54;;;;;;;;;;;;;;;25.02;37.29;97216.34;5093994;28;20461;-71
2022/06/17 08:24:20;;;;;;;;;;;;;;;24.90;37.82;97224.06;5094704;28;19997;-70
2022/06/17 08:27:04;;;;;;;;;;;;;;;24.80;38.46;97226.88;5094724;28;19962;-70
2022/06/17 08:29:30;;;;;;;;;;;;;;;24.83;38.73;97224.44;5094662;28;19958;-69
2022/06/17 08:32:45;;;;;;;;;;;;;;;24.73;38.18;97219.22;5093896;28;19965;-70
2022/06/17 08:34:42;;;;;;;;;;;;;;;24.67;38.63;97223.06;5094454;28;20411;-70
2022/06/17 08:37:10;;;;;;;;;;;;;;;24.81;39.33;97225.81;5094194;28;19960;-71
2022/06/17 08:39:36;;;;;;;;;;;;;;;24.91;38.46;97218.41;5094187;28;19957;-70
2022/06/17 08:42:10;;;;;;;;;;;;;;;24.87;38.22;97220.06;5094261;28;20340;-70
2022/06/17 08:44:39;;;;;;;;;;;;;;;24.85;39.14;97216.09;5094001;28;19968;-70
2022/06/17 08:47:27;;;;;;;;;;;;;;;24.81;39.29;97220.44;5094141;28;19961;-71
2022/06/17 08:49:55;;;;;;;;;;;;;;;24.91;38.54;97213.03;5094758;28;19977;-70
2022/06/17 08:52:29;;;;;;;;;;;;;;;24.77;37.40;97212.19;5093611;28;20334;-70
2022/06/17 08:55:07;;;;;;;;;;;;;;;24.89;38.71;97212.53;5093973;28;19953;-70
2022/06/17 08:57:47;;;;;;;;;;;;;;;25.05;38.61;97223.84;5093835;28;19950;-70
2022/06/17 09:00:15;;;;;;;;;;;;;;;25.21;38.20;97219.03;5093684;28;19955;-70
2022/06/17 09:02:57;;;;;;;;;;;;;;;25.16;37.51;97221.78;5093487;28;19950;-70
2022/06/17 09:05:22;;;;;;;;;;;;;;;25.30;38.74;97224.53;5083248;28;19966;-70
2022/06/17 09:08:00;;;;;;;;;;;;;;;25.51;37.87;97220.44;5093861;28;19960;-71
2022/06/17 09:10:45;;;;;;;;;;;;;;;25.58;37.97;97220.03;5093874;28;19946;-70
2022/06/17 09:13:22;;;;;;;;;;;;;;;25.45;36.69;97210.88;5093526;28;19953;-71
2022/06/17 09:15:54;;;;;;;;;;;;;;;25.42;37.39;97213.34;5093985;28;19959;-70
2022/06/17 09:18:40;;;;;;;;;;;;;;;25.56;37.96;97208.78;5093589;28;19959;-70
2022/06/17 09:21:18;;;;;;;;;;;;;;;25.52;37.39;97205.88;5093462;28;19976;-70
2022/06/17 09:23:44;;;;;;;;;;;;;;;25.47;37.95;97205.16;5093944;28;19955;-70
2022/06/17 09:26:14;;;;;;;;;;;;;;;25.65;38.66;97209.69;5093993;28;19953;-70
2022/06/17 09:28:44;;;;;;;;;;;;;;;25.85;38.52;97205.84;5093745;28;19949;-71
2022/06/17 09:31:16;;;;;;;;;;;;;;;26.02;37.34;97196.41;5093381;28;19962;-70
2022/06/17 09:33:45;;;;;;;;;;;;;;;25.81;37.17;97207.53;5093169;28;19953;-70
2022/06/17 09:36:17;;;;;;;;;;;;;;;25.91;37.37;97210.03;5093715;28;19997;-70
2022/06/17 09:38:48;;;;;;;;;;;;;;;26.04;36.70;97205.75;5093540;28;19952;-70
2022/06/17 09:41:42;;;;;;;;;;;;;;;26.08;35.65;97206.75;5086056;28;19970;-70
2022/06/17 09:44:14;;;;;;;;;;;;;;;26.12;36.65;97201.56;5093656;28;19982;-70
2022/06/17 09:46:43;;;;;;;;;;;;;;;26.21;36.15;97196.28;5093607;28;20036;-70
2022/06/17 09:49:18;;;;;;;;;;;;;;;26.24;37.81;97199.16;5093441;28;19952;-70
2022/06/17 09:51:51;;;;;;;;;;;;;;;26.35;36.84;97197.03;5093501;28;19951;-71
2022/06/17 09:54:20;;;;;;;;;;;;;;;26.25;36.07;97202.66;5084703;28;19952;-70
2022/06/17 09:56:56;;;;;;;;;;;;;;;26.36;37.04;97201.34;5092826;28;20336;-70
2022/06/17 09:59:25;;;;;;;;;;;;;;;26.57;36.21;97201.72;5093341;28;20400;-70
2022/06/17 10:01:53;;;;;;;;;;;;;;;26.76;36.55;97196.19;5093331;28;19970;-71
2022/06/17 10:04:19;;;;;;;;;;;;;;;26.79;36.53;97197.47;5093116;28;19949;-71
2022/06/17 10:06:48;;;;;;;;;;;;;;;26.66;34.33;97193.72;5093363;28;19960;-70
2022/06/17 10:09:14;;;;;;;;;;;;;;;26.55;35.77;97197.72;5093223;28;20451;-70
2022/06/17 10:11:55;;;;;;;;;;;;;;;26.62;37.34;97206.97;5091991;28;19954;-71
2022/06/17 10:14:21;;;;;;;;;;;;;;;26.82;36.00;97205.72;5096069;28;19981;-70
2022/06/17 10:19:40;;;;;;;;;;;;;;;27.32;35.85;97202.94;5097082;28;19953;-70
2022/06/17 10:22:14;;;;;;;;;;;;;;;27.57;35.66;97199.88;5096997;28;19975;-71
2022/06/17 10:24:43;;;;;;;;;;;;;;;27.77;34.60;97185.09;5096988;28;19958;-70
2022/06/17 10:27:11;;;;;;;;;;;;;;;27.86;33.83;97184.03;5096982;28;19985;-70
2022/06/17 10:29:40;;;;;;;;;;;;;;;27.94;34.68;97185.94;5097000;28;19958;-70
2022/06/17 10:32:06;;;;;;;;;;;;;;;28.01;34.24;97182.78;5096183;28;19952;-70
2022/06/17 10:34:38;;;;;;;;;;;;;;;28.10;34.97;97189.03;5096806;28;19960;-70
2022/06/17 10:37:05;;;;;;;;;;;;;;;28.19;34.13;97186.34;5096452;28;19955;-70
2022/06/17 10:39:32;;;;;;;;;;;;;;;28.25;32.82;97177.00;5096402;28;20393;-71
2022/06/17 10:41:59;;;;;;;;;;;;;;;28.23;32.90;97176.50;5096800;28;19972;-70
2022/06/17 10:44:26;;;;;;;;;;;;;;;28.09;33.18;97178.53;5096185;28;19948;-71
2022/06/17 10:47:05;;;;;;;;;;;;;;;27.84;33.28;97182.72;5096368;28;19957;-71
2022/06/17 10:49:34;;;;;;;;;;;;;;;27.81;34.11;97177.97;5088566;28;19948;-71
2022/06/17 10:52:01;;;;;;;;;;;;;;;27.86;33.69;97185.94;5096404;28;20391;-70
2022/06/17 10:54:34;;;;;;;;;;;;;;;27.94;32.43;97182.47;5096167;28;19956;-71
2022/06/17 10:57:05;;;;;;;;;;;;;;;28.01;33.45;97184.69;5096957;28;19954;-70
2022/06/17 10:59:42;;;;;;;;;;;;;;;28.14;33.77;97186.50;5095525;28;19955;-70
2022/06/17 11:02:24;;;;;;;;;;;;;;;28.34;33.11;97168.91;5096114;28;19965;-70
2022/06/17 11:04:51;;;;;;;;;;;;;;;28.14;31.64;97171.09;5096137;28;19960;-71
2022/06/17 11:07:21;;;;;;;;;;;;;;;27.85;31.75;97174.31;5096619;28;19957;-71
2022/06/17 11:09:49;;;;;;;;;;;;;;;27.70;31.74;97169.38;5095943;28;19959;-71
2022/06/17 11:12:19;;;;;;;;;;;;;;;27.75;32.83;97163.81;5095998;28;19951;-71
2022/06/17 11:14:45;;;;;;;;;;;;;;;27.90;33.00;97162.63;5095636;28;19992;-71
2022/06/17 11:17:20;;;;;;;;;;;;;;;28.12;33.08;97170.63;5095316;28;19998;-71
2022/06/17 11:19:49;;;;;;;;;;;;;;;28.48;33.05;97168.78;5095881;28;19966;-71
2022/06/17 11:22:19;;;;;;;;;;;;;;;28.82;31.26;97165.28;5095779;28;19990;-70
2022/06/17 11:24:50;;;;;;;;;;;;;;;29.03;31.61;97161.94;5095222;28;19954;-71
2022/06/17 11:27:22;;;;;;;;;;;;;;;29.05;31.71;97165.13;5095727;28;19959;-71
2022/06/17 11:29:50;;;;;;;;;;;;;;;28.90;31.18;97159.09;5095466;28;19961;-71
2022/06/17 11:32:19;;;;;;;;;;;;;;;28.67;30.63;97153.09;5095905;28;19958;-71
2022/06/17 11:34:49;;;;;;;;;;;;;;;28.73;30.85;97161.81;5095699;28;20314;-71
2022/06/17 11:37:20;;;;;;;;;;;;;;;28.83;32.03;97152.59;5095513;28;19956;-70
2022/06/17 11:39:46;;;;;;;;;;;;;;;29.07;31.24;97158.28;5095464;28;19954;-71
2022/06/17 11:42:17;;;;;;;;;;;;;;;29.23;30.75;97146.97;5095387;28;19971;-70
2022/06/17 11:44:54;;;;;;;;;;;;;;;29.42;29.92;97154.72;5095283;28;19957;-70
2022/06/17 11:47:22;;;;;;;;;;;;;;;29.39;31.08;97149.97;5084330;28;19961;-70
2022/06/17 11:49:48;;;;;;;;;;;;;;;29.51;30.51;97153.56;5095262;28;19954;-70
2022/06/17 11:52:34;;;;;;;;;;;;;;;29.71;30.46;97143.16;5095306;28;19984;-70
2022/06/17 11:55:02;;;;;;;;;;;;;;;29.88;30.01;97143.09;5085778;28;20445;-70
2022/06/17 11:57:33;;;;;;;;;;;;;;;30.07;29.77;97139.16;5095201;28;19957;-70
2022/06/17 12:00:36;;;;;;;;;;;;;;;30.34;30.00;97127.88;5086867;28;19950;-71
2022/06/17 12:03:05;;;;;;;;;;;;;;;30.56;29.46;97128.66;5120366;27;19977;-71
2022/06/17 12:05:32;;;;;;;;;;;;;;;30.54;27.64;97133.59;5094747;28;19954;-71
2022/06/17 12:08:01;;;;;;;;;;;;;;;30.61;28.75;97136.56;5094871;28;19953;-71
2022/06/17 12:10:33;;;;;;;;;;;;;;;30.74;28.88;97135.50;5095146;28;19954;-71
2022/06/17 12:13:22;;;;;;;;;;;;;;;30.88;26.72;97118.19;5083895;28;20428;-71
2022/06/17 12:15:55;;;;;;;;;;;;;;;30.61;25.31;97122.22;5089142;28;20374;-71
2022/06/17 12:18:21;;;;;;;;;;;;;;;30.40;27.97;97131.16;5094610;28;19955;-71
2022/06/17 12:21:06;;;;;;;;;;;;;;;30.48;28.72;97118.69;5094574;28;19996;-71
2022/06/17 12:23:45;;;;;;;;;;;;;;;30.63;27.36;97122.69;5094176;28;19960;-71
2022/06/17 12:26:14;;;;;;;;;;;;;;;30.80;26.03;97108.97;5094421;28;19962;-71
2022/06/17 12:28:43;;;;;;;;;;;;;;;30.84;26.00;97109.91;5094750;28;19951;-71
2022/06/17 12:31:28;;;;;;;;;;;;;;;30.77;26.15;97100.75;5094292;28;19949;-71
2022/06/17 12:33:54;;;;;;;;;;;;;;;30.60;26.01;97104.41;5094362;28;19973;-71
2022/06/17 12:36:26;;;;;;;;;;;;;;;30.34;23.95;97103.53;5093598;28;19961;-71
2022/06/17 12:39:01;;;;;;;;;;;;;;;30.18;26.75;97105.19;5094501;28;19957;-72
2022/06/17 12:41:27;;;;;;;;;;;;;;;30.08;26.09;97106.38;5094305;28;20452;-71
2022/06/17 12:43:59;;;;;;;;;;;;;;;30.11;23.87;97099.50;5094578;28;19958;-71
2022/06/17 12:47:02;;;;;;;;;;;;;;;30.27;26.87;97100.50;5082608;28;20334;-71
2022/06/17 12:55:22;;;;;;;;;;;;;;;30.47;24.96;97098.13;5093443;28;19965;-71
2022/06/17 12:57:51;;;;;;;;;;;;;;;30.57;25.16;97096.94;5094098;28;19974;-71
2022/06/17 13:00:17;;;;;;;;;;;;;;;30.51;23.94;97089.03;5093891;28;19950;-71
2022/06/17 13:02:43;;;;;;;;;;;;;;;30.55;24.70;97089.97;5093776;28;19971;-71
2022/06/17 13:05:23;;;;;;;;;;;;;;;30.59;24.11;97090.06;5093820;28;19963;-72
2022/06/17 13:07:52;;;;;;;;;;;;;;;30.41;23.25;97088.63;5094379;28;19947;-71
2022/06/17 13:10:39;;;;;;;;;;;;;;;30.12;23.19;97087.59;5094274;28;19953;-71
2022/06/17 13:13:26;;;;;;;;;;;;;;;30.03;23.02;97078.72;5085734;28;19968;-72